MAYO2: W. D. Mayo Lock And Dam (L&D 14)

Data processed at Tue May 21 2019 22:30


All information presented herein is the property of the government of the United States of America and may be revised or deleted at any time without prior notice.
Dissemination of this information without the expressed written consent of the Public Affairs Office, Tulsa District U.S. Army Corps of Engineers is strictly prohibited.
These data are gathered electronically and, as presented, have not undergone any form of quality control. These data are not guaranteed to be valid or correct.
Go to home page.
Go to station list.
Go to home page.

Upstream stations:

Downstream station:
Previous Day
Next Day
Current Day
    
SHEF ID:       MAYO2     W.D. Mayo LD14
STATION TYPE:  NAVIGATION LOCK
Navigation Pool:  Bottom =   411.00, Top =   413.00

               PRECIP ELEVATION   STORAGE   TW-ELEV LOCK-ELEV    INFLOW   RELEASE  AIR-TEMP  WIND-DIRWIND-SPEED REL-HUMID SOLAR-RAD   VOLTAGE  BAT-LOAD
                   in        ft     ac-ft        ft        ft       cfs       cfs         F       deg       mph         %      W/m2      volt      volt
              Ccp-Rev   Ccp-Rev   Ccp-Rev   Ccp-Rev   Ccp-Rev  Rev-Regi  Rev-Regi   Ccp-Rev   Ccp-Rev   Ccp-Rev   Ccp-Rev   Ccp-Rev   Ccp-Rev   Ccp-Rev
(US/Central)
05/21 00:00      0.00    411.22     13031    408.54    411.40    136900    136565     77.56    116.30      2.20     85.79      0.00     13.63     13.37
05/21 01:00      0.00    411.28     13116    408.53    411.26    136522    136748     76.59     19.30      1.40     89.40      0.00     13.63     13.44
05/21 02:00      0.00    411.29     13131    408.52    411.32    136917    136931     74.93     74.90      1.10     93.04      0.00     13.63     13.44
05/21 03:00      0.00    411.26     13088    408.56    411.26    136959    136878     74.41     77.10      1.10     93.40      0.00     13.63     13.44
05/21 04:00      0.00    411.25     13073    408.53    411.12    136802    136774     74.34     88.80      1.10     91.42      0.00     13.63     13.44
05/21 05:00      0.00    411.26     13088    408.49    411.28    136552    136774     75.07     91.50      2.70     87.16      0.00     13.63     13.37
05/21 06:00      0.00    411.27     13102    408.55    411.23    136917    136826     74.71     67.10      3.60     88.06      0.00     13.63     13.44
05/21 07:00      0.00    411.22     13031    408.52    411.21    137119    136721     74.98    113.40      7.00     85.85      4.00     13.63     13.37
05/21 08:00      0.00    411.30     13145    408.54    411.22    137363    136800     75.22    122.00      9.90     84.08     56.40     13.63     13.37
05/21 09:00      0.00    411.33     13188    408.62    411.28    137209    137087     76.24    119.50     13.00     80.19     97.60     13.63     13.37
05/21 10:00      0.00    411.38     13260    408.57    411.20    137540    137296     77.07    130.60     12.50     76.15     31.20     13.63     13.44
05/21 11:00      0.41    411.32     13174    408.52    411.36    137267    137270     70.45    204.10      8.40     88.09      3.70     13.63     13.44
05/21 12:00      0.14    411.34     13203    408.55    411.21    137248    137166     66.49    165.30      5.00     98.00     37.30     13.62     13.37
05/21 13:00      0.02    411.32     13174    408.58    411.32    137218    137166     68.83    154.00      5.70     95.96    101.50     13.63     13.37
05/21 14:00      0.01    411.34     13203    408.68    411.52    137982    137166     68.74    149.60      5.70     93.12    137.80     13.62     13.44
05/21 15:00      0.03    411.38     13260    408.96    411.33    139529    137322     67.26    139.20      5.80     92.81     26.00     13.62     13.44
05/21 16:00      0.01    411.51     13448    409.11    411.30    140856    137767     66.92    141.50      4.90     88.03    145.60     13.62     13.44
05/21 17:00      0.00    411.86     13963    409.34    411.32    142473    139021     68.70    141.40      5.20     78.67    323.10     13.62     13.37
05/21 18:00      0.00    412.03     14217    409.64    409.58    143306    140375     71.19    141.20      5.50     68.68    418.30     13.62     13.44
05/21 19:00      0.00    412.27     14580    409.79    409.84    144165    141394     71.80    145.00      6.00     63.71    275.20     13.62     13.37
05/21 20:00      0.00    412.38     14749    409.90    410.00    143551    141998     70.14    142.30      5.60     66.75     78.00     13.62     13.44
05/21 21:00      0.00    412.65     15167    410.10    410.01    144162    142299     67.78    137.80      3.60     73.11      0.40     13.62     13.44
05/21 22:00      0.00    412.67     15198    410.18    410.25      ----      ----     66.60    132.40      4.00     76.25      0.00     13.62     13.37
05/21 23:00      ----      ----      ----      ----      ----      ----      ----      ----      ----      ----      ----      ----      ----      ----